Аэропорт: Брест-2. Брест

ICAO: UMBB

METAR:
Информация по данной станции не доступна
METAR:
2021-07-28 11:00:00
TAF UMBB 281100Z 2812/2821 24004MPS 9999 BKN025 TX30/2812Z TN22/2821Z TEMPO 2813/2821 27006G11MPS 2100 -TSRA BKN007 BKN016CB